Time;durP1;ratioP1;P1;durP2;ratioP2;P2;SDS_P1;SDS_P2;PMS_P1;PMS_P2;Temp;Humidity;BMP_temperature;BMP_pressure;BME280_temperature;BME280_humidity;BME280_pressure;Samples;Min_cycle;Max_cycle;Signal;HPM_P1;HPM_P2
2022/08/09 00:00:17;;;;;;;1.10;1.10;;;;;;;;;;5047864;28;20175;-68
2022/08/09 00:02:42;;;;;;;2.00;1.40;;;;;;;;;;5022648;28;20183;-68
2022/08/09 00:05:08;;;;;;;1.47;1.37;;;;;;;;;;5037399;28;20463;-69
2022/08/09 00:07:33;;;;;;;1.97;1.80;;;;;;;;;;5039118;28;20175;-67
2022/08/09 00:09:59;;;;;;;2.90;1.40;;;;;;;;;;5022305;28;20192;-69
2022/08/09 00:12:24;;;;;;;5.53;2.03;;;;;;;;;;5039128;28;20202;-68
2022/08/09 00:14:50;;;;;;;3.63;1.60;;;;;;;;;;5028921;28;20180;-69
2022/08/09 00:17:15;;;;;;;3.23;1.60;;;;;;;;;;5040084;28;20187;-69
2022/08/09 00:19:40;;;;;;;1.73;1.63;;;;;;;;;;5026521;28;20194;-69
2022/08/09 00:22:06;;;;;;;1.77;1.43;;;;;;;;;;5022725;28;20182;-68
2022/08/09 00:24:31;;;;;;;1.50;1.40;;;;;;;;;;5039839;28;20185;-69
2022/08/09 00:26:57;;;;;;;2.30;1.37;;;;;;;;;;5038132;28;20189;-69
2022/08/09 00:29:23;;;;;;;2.17;1.50;;;;;;;;;;5039097;28;20187;-68
2022/08/09 00:31:48;;;;;;;2.57;1.67;;;;;;;;;;5040379;28;20518;-69
2022/08/09 00:34:13;;;;;;;1.70;1.60;;;;;;;;;;5042463;28;20208;-69
2022/08/09 00:36:38;;;;;;;2.03;1.60;;;;;;;;;;5031745;28;20220;-69
2022/08/09 00:39:03;;;;;;;2.00;1.77;;;;;;;;;;5025408;28;20241;-68
2022/08/09 00:41:29;;;;;;;1.87;1.73;;;;;;;;;;5043656;28;20219;-68
2022/08/09 00:43:54;;;;;;;2.53;1.50;;;;;;;;;;5045992;28;20246;-69
2022/08/09 00:46:20;;;;;;;2.47;1.60;;;;;;;;;;5043144;28;20193;-69
2022/08/09 00:48:45;;;;;;;2.93;1.83;;;;;;;;;;5044190;28;20172;-68
2022/08/09 00:51:10;;;;;;;2.50;1.60;;;;;;;;;;5017292;28;20282;-69
2022/08/09 00:53:36;;;;;;;2.87;1.43;;;;;;;;;;5039589;28;20241;-69
2022/08/09 00:56:03;;;;;;;3.10;2.00;;;;;;;;;;5022818;28;20255;-69
2022/08/09 00:58:30;;;;;;;3.30;1.90;;;;;;;;;;5005867;28;20193;-69
2022/08/09 01:00:55;;;;;;;2.40;1.60;;;;;;;;;;5029461;28;20207;-69
2022/08/09 01:03:30;;;;;;;1.70;1.60;;;;;;;;;;5023951;28;20221;-70
2022/08/09 01:06:03;;;;;;;2.00;1.47;;;;;;;;;;5007673;28;20185;-68
2022/08/09 01:08:42;;;;;;;2.67;1.47;;;;;;;;;;5022788;28;20181;-69
2022/08/09 01:11:10;;;;;;;1.90;1.60;;;;;;;;;;5039298;28;20179;-68
2022/08/09 01:13:50;;;;;;;1.93;1.83;;;;;;;;;;5011986;28;20270;-68
2022/08/09 01:16:16;;;;;;;1.73;1.63;;;;;;;;;;5001638;28;20354;-70
2022/08/09 01:18:44;;;;;;;1.77;1.47;;;;;;;;;;5011170;28;20214;-69
2022/08/09 01:21:28;;;;;;;2.00;1.80;;;;;;;;;;5023372;28;20251;-69
2022/08/09 01:23:56;;;;;;;2.40;1.80;;;;;;;;;;5009680;28;20183;-70
2022/08/09 01:26:40;;;;;;;2.30;1.50;;;;;;;;;;5004538;28;20272;-69
2022/08/09 01:29:08;;;;;;;3.43;1.80;;;;;;;;;;5010665;28;20217;-69
2022/08/09 01:31:36;;;;;;;2.23;1.50;;;;;;;;;;5027885;28;20208;-69
2022/08/09 01:34:02;;;;;;;3.77;1.83;;;;;;;;;;5026676;28;20931;-69
2022/08/09 01:36:29;;;;;;;2.70;1.50;;;;;;;;;;4998555;28;20215;-69
2022/08/09 01:38:55;;;;;;;1.93;1.70;;;;;;;;;;5011396;28;20280;-68
2022/08/09 01:41:25;;;;;;;2.00;1.70;;;;;;;;;;5023463;28;20300;-69
2022/08/09 01:43:53;;;;;;;2.17;1.57;;;;;;;;;;5025322;28;20487;-69
2022/08/09 01:46:19;;;;;;;2.03;1.60;;;;;;;;;;5005248;28;20203;-69
2022/08/09 01:48:45;;;;;;;1.93;1.70;;;;;;;;;;5000202;28;20199;-69
2022/08/09 01:51:12;;;;;;;2.07;1.60;;;;;;;;;;5002847;28;20190;-69
2022/08/09 01:53:37;;;;;;;2.33;1.60;;;;;;;;;;5022038;28;20270;-68
2022/08/09 01:56:03;;;;;;;2.33;1.73;;;;;;;;;;5022596;28;20213;-69
2022/08/09 01:58:29;;;;;;;2.43;1.97;;;;;;;;;;5025149;28;20195;-68
2022/08/09 02:00:56;;;;;;;1.63;1.53;;;;;;;;;;5020279;28;20176;-69
2022/08/09 02:03:22;;;;;;;5.37;1.53;;;;;;;;;;5021005;28;20420;-68
2022/08/09 02:05:49;;;;;;;1.97;1.83;;;;;;;;;;5020131;28;20261;-68
2022/08/09 02:08:16;;;;;;;4.80;2.17;;;;;;;;;;4999087;28;20239;-69
2022/08/09 02:10:43;;;;;;;2.10;1.70;;;;;;;;;;5009638;28;20181;-69
2022/08/09 02:13:11;;;;;;;2.10;1.90;;;;;;;;;;5011207;28;20206;-69
2022/08/09 02:15:38;;;;;;;9.33;1.90;;;;;;;;;;5005981;28;20173;-69
2022/08/09 02:18:04;;;;;;;2.00;1.80;;;;;;;;;;5026737;28;20202;-70
2022/08/09 02:20:31;;;;;;;2.53;2.33;;;;;;;;;;5022438;28;20177;-70
2022/08/09 02:23:08;;;;;;;2.03;1.63;;;;;;;;;;5033268;28;20182;-70
2022/08/09 02:25:36;;;;;;;3.40;2.00;;;;;;;;;;5006058;28;20185;-69
2022/08/09 02:28:05;;;;;;;2.23;1.80;;;;;;;;;;5011990;28;20194;-68
2022/08/09 02:30:32;;;;;;;1.60;1.50;;;;;;;;;;5005420;28;20277;-69
2022/08/09 02:32:58;;;;;;;2.27;2.07;;;;;;;;;;5026363;28;20206;-69
2022/08/09 02:35:23;;;;;;;1.87;1.77;;;;;;;;;;5015753;28;20178;-69
2022/08/09 02:37:50;;;;;;;1.93;1.83;;;;;;;;;;5036382;28;20178;-70
2022/08/09 02:40:17;;;;;;;1.90;1.80;;;;;;;;;;5016315;28;20182;-69
2022/08/09 02:42:44;;;;;;;2.03;1.83;;;;;;;;;;5013701;28;20175;-68
2022/08/09 02:45:11;;;;;;;1.97;1.70;;;;;;;;;;5011513;28;20209;-70
2022/08/09 02:47:37;;;;;;;2.43;1.80;;;;;;;;;;5017870;28;20187;-69
2022/08/09 02:50:08;;;;;;;2.23;1.93;;;;;;;;;;5001497;28;20209;-69
2022/08/09 02:52:41;;;;;;;2.37;1.87;;;;;;;;;;5006190;28;20233;-69
2022/08/09 02:55:08;;;;;;;2.03;1.73;;;;;;;;;;5017072;28;20232;-70
2022/08/09 02:57:35;;;;;;;2.83;1.60;;;;;;;;;;5006847;28;20184;-69
2022/08/09 03:00:05;;;;;;;1.83;1.73;;;;;;;;;;5007485;28;20228;-69
2022/08/09 03:02:31;;;;;;;4.70;2.20;;;;;;;;;;4995221;28;20182;-70
2022/08/09 03:04:57;;;;;;;1.50;1.40;;;;;;;;;;5004443;28;20193;-69
2022/08/09 03:07:23;;;;;;;4.53;2.10;;;;;;;;;;5020467;28;20246;-68
2022/08/09 03:09:49;;;;;;;2.30;2.10;;;;;;;;;;5003467;28;20280;-69
2022/08/09 03:12:16;;;;;;;1.87;1.77;;;;;;;;;;5019605;28;20329;-69
2022/08/09 03:14:42;;;;;;;4.37;2.50;;;;;;;;;;5021042;28;20185;-69
2022/08/09 03:17:08;;;;;;;2.43;2.23;;;;;;;;;;5021513;28;20170;-70
2022/08/09 03:19:34;;;;;;;2.37;2.17;;;;;;;;;;5023329;28;20201;-69
2022/08/09 03:21:59;;;;;;;2.47;2.27;;;;;;;;;;5023654;28;20194;-69
2022/08/09 03:24:25;;;;;;;2.40;2.00;;;;;;;;;;5018983;28;20279;-70
2022/08/09 03:26:50;;;;;;;3.07;2.00;;;;;;;;;;5020717;28;20183;-69
2022/08/09 03:29:16;;;;;;;2.83;2.23;;;;;;;;;;5019171;28;20215;-68
2022/08/09 03:31:42;;;;;;;2.83;2.40;;;;;;;;;;5022654;28;20205;-69
2022/08/09 03:34:07;;;;;;;2.00;1.90;;;;;;;;;;5004093;28;20225;-68
2022/08/09 03:36:33;;;;;;;2.10;2.00;;;;;;;;;;5001760;28;20420;-68
2022/08/09 03:38:58;;;;;;;2.50;2.00;;;;;;;;;;4999019;28;20377;-69
2022/08/09 03:41:24;;;;;;;3.87;2.20;;;;;;;;;;5002153;28;20189;-69
2022/08/09 03:43:49;;;;;;;6.47;3.03;;;;;;;;;;5019774;28;20223;-69
2022/08/09 03:46:14;;;;;;;4.60;2.30;;;;;;;;;;5017858;28;20243;-70
2022/08/09 03:48:40;;;;;;;4.97;2.57;;;;;;;;;;5020080;28;20192;-69
2022/08/09 03:51:08;;;;;;;5.90;2.20;;;;;;;;;;5006495;28;20188;-69
2022/08/09 03:53:34;;;;;;;3.20;2.10;;;;;;;;;;5005719;28;20220;-69
2022/08/09 03:55:59;;;;;;;3.33;2.40;;;;;;;;;;5022141;28;20408;-69
2022/08/09 03:58:25;;;;;;;2.63;1.80;;;;;;;;;;5040797;28;20237;-69
2022/08/09 04:00:50;;;;;;;4.07;2.10;;;;;;;;;;5040928;28;20218;-70
2022/08/09 04:03:16;;;;;;;4.97;2.60;;;;;;;;;;5040389;28;20230;-68
2022/08/09 04:05:41;;;;;;;3.20;2.10;;;;;;;;;;5041593;28;20416;-69
2022/08/09 04:08:06;;;;;;;1.80;1.70;;;;;;;;;;5035047;28;20454;-69
2022/08/09 04:10:31;;;;;;;3.37;2.20;;;;;;;;;;5024801;28;20190;-70
2022/08/09 04:12:58;;;;;;;4.30;2.20;;;;;;;;;;5044463;28;20246;-69
2022/08/09 04:15:24;;;;;;;4.00;2.30;;;;;;;;;;5033034;28;20204;-68
2022/08/09 04:17:49;;;;;;;2.40;2.20;;;;;;;;;;5028270;28;20228;-68
2022/08/09 04:20:15;;;;;;;2.47;2.37;;;;;;;;;;5044308;28;20180;-68
2022/08/09 04:22:40;;;;;;;2.60;2.40;;;;;;;;;;5044048;28;20191;-69
2022/08/09 04:25:06;;;;;;;2.83;2.63;;;;;;;;;;5043514;28;20202;-70
2022/08/09 04:27:31;;;;;;;3.53;3.23;;;;;;;;;;5043286;28;20195;-69
2022/08/09 04:29:57;;;;;;;2.80;2.60;;;;;;;;;;5045928;28;20274;-69
2022/08/09 04:32:22;;;;;;;3.67;2.60;;;;;;;;;;5036187;28;20256;-69
2022/08/09 04:34:48;;;;;;;4.60;2.87;;;;;;;;;;5043338;28;20246;-69
2022/08/09 04:37:13;;;;;;;3.80;3.13;;;;;;;;;;5024320;28;20186;-68
2022/08/09 04:39:38;;;;;;;3.40;2.80;;;;;;;;;;5027421;28;20179;-68
2022/08/09 04:42:04;;;;;;;3.53;3.00;;;;;;;;;;5040545;28;20181;-69
2022/08/09 04:44:29;;;;;;;7.83;2.90;;;;;;;;;;5044422;28;20344;-69
2022/08/09 04:46:54;;;;;;;2.80;2.47;;;;;;;;;;5025430;28;20240;-69
2022/08/09 04:49:20;;;;;;;3.63;2.40;;;;;;;;;;5043364;28;20172;-69
2022/08/09 04:51:45;;;;;;;3.00;2.77;;;;;;;;;;5011988;28;20201;-69
2022/08/09 04:54:10;;;;;;;4.63;2.73;;;;;;;;;;5022243;28;20426;-70
2022/08/09 04:56:35;;;;;;;3.13;2.80;;;;;;;;;;5030618;28;20256;-69
2022/08/09 04:59:01;;;;;;;2.67;2.30;;;;;;;;;;5013646;28;20623;-68
2022/08/09 05:01:26;;;;;;;4.13;2.70;;;;;;;;;;5020002;28;20276;-69
2022/08/09 05:03:52;;;;;;;6.20;3.90;;;;;;;;;;5017168;28;20227;-68
2022/08/09 05:06:17;;;;;;;4.20;2.67;;;;;;;;;;5012988;28;20180;-69
2022/08/09 05:08:42;;;;;;;3.20;2.90;;;;;;;;;;5020174;28;20210;-69
2022/08/09 05:11:07;;;;;;;3.53;3.17;;;;;;;;;;5016447;28;20220;-70
2022/08/09 05:13:33;;;;;;;4.30;3.07;;;;;;;;;;5005235;28;20181;-69
2022/08/09 05:15:58;;;;;;;3.13;2.57;;;;;;;;;;5016549;28;20528;-70
2022/08/09 05:18:28;;;;;;;4.70;4.40;;;;;;;;;;5023445;28;20195;-70
2022/08/09 05:20:57;;;;;;;3.10;2.90;;;;;;;;;;5017067;28;20232;-70
2022/08/09 05:23:23;;;;;;;4.77;2.90;;;;;;;;;;5009095;28;20215;-69
2022/08/09 05:25:48;;;;;;;5.47;3.43;;;;;;;;;;5021587;28;20177;-68
2022/08/09 05:28:13;;;;;;;5.27;3.63;;;;;;;;;;5000765;28;20417;-69
2022/08/09 05:30:38;;;;;;;3.63;2.90;;;;;;;;;;5016811;28;20189;-69
2022/08/09 05:33:04;;;;;;;4.27;2.93;;;;;;;;;;5010432;28;20202;-69
2022/08/09 05:35:29;;;;;;;3.30;3.03;;;;;;;;;;5002463;28;20181;-70
2022/08/09 05:37:55;;;;;;;2.93;2.53;;;;;;;;;;5037145;28;20223;-70
2022/08/09 05:40:21;;;;;;;2.87;2.67;;;;;;;;;;4994959;28;20183;-70
2022/08/09 05:42:46;;;;;;;2.67;2.47;;;;;;;;;;5020800;28;20174;-70
2022/08/09 05:45:12;;;;;;;3.23;3.03;;;;;;;;;;5022934;28;20208;-70
2022/08/09 05:47:37;;;;;;;2.60;2.40;;;;;;;;;;5005533;28;20181;-69
2022/08/09 05:50:02;;;;;;;3.40;2.77;;;;;;;;;;5020168;28;20186;-68
2022/08/09 05:52:27;;;;;;;3.07;2.57;;;;;;;;;;4995481;28;20236;-69
2022/08/09 05:54:52;;;;;;;6.20;2.60;;;;;;;;;;5024334;28;20253;-69
2022/08/09 05:57:18;;;;;;;3.83;3.53;;;;;;;;;;5020663;28;20307;-69
2022/08/09 05:59:43;;;;;;;3.80;2.70;;;;;;;;;;5022425;28;20163;-69
2022/08/09 06:02:08;;;;;;;2.97;2.77;;;;;;;;;;5003758;28;20186;-70
2022/08/09 06:04:35;;;;;;;3.10;2.90;;;;;;;;;;5019258;28;20186;-70
2022/08/09 06:07:00;;;;;;;3.43;3.00;;;;;;;;;;5004273;28;20184;-70
2022/08/09 06:09:25;;;;;;;3.00;2.80;;;;;;;;;;5019721;28;20515;-70
2022/08/09 06:11:51;;;;;;;2.80;2.60;;;;;;;;;;5006814;28;20236;-70
2022/08/09 06:14:18;;;;;;;2.97;2.77;;;;;;;;;;5017384;28;20172;-70
2022/08/09 06:16:44;;;;;;;3.20;2.63;;;;;;;;;;4992319;28;20186;-69
2022/08/09 06:19:10;;;;;;;3.00;2.70;;;;;;;;;;5016178;28;20505;-70
2022/08/09 06:21:35;;;;;;;3.73;3.30;;;;;;;;;;4997492;28;20176;-69
2022/08/09 06:24:00;;;;;;;3.80;2.80;;;;;;;;;;5018019;28;20245;-70
2022/08/09 06:26:26;;;;;;;4.47;3.13;;;;;;;;;;4996502;28;20176;-69
2022/08/09 06:28:51;;;;;;;10.20;2.97;;;;;;;;;;4996244;28;20189;-69
2022/08/09 06:31:17;;;;;;;6.27;3.33;;;;;;;;;;5004596;28;20188;-69
2022/08/09 06:33:43;;;;;;;4.23;3.00;;;;;;;;;;5000635;28;20186;-69
2022/08/09 06:36:09;;;;;;;3.40;3.20;;;;;;;;;;5014317;28;20469;-69
2022/08/09 06:38:34;;;;;;;2.93;2.73;;;;;;;;;;5016573;28;20260;-70
2022/08/09 11:29:58;;;;;;;2.80;2.55;;;;;;;;;;4919229;29;20242;-70
2022/08/09 11:32:38;;;;;;;2.80;2.60;;;;;;;;;;4921273;29;20210;-70
2022/08/09 11:35:26;;;;;;;2.90;2.60;;;;;;;;;;4921038;29;20675;-70
2022/08/09 11:38:12;;;;;;;2.60;2.40;;;;;;;;;;4912047;29;20201;-70
2022/08/09 11:40:37;;;;;;;3.88;2.40;;;;;;;;;;4906141;29;20190;-70
2022/08/09 11:43:02;;;;;;;3.38;2.38;;;;;;;;;;4924203;29;20214;-70
2022/08/09 11:45:37;;;;;;;2.50;2.30;;;;;;;;;;4921920;29;20206;-70
2022/08/09 11:48:14;;;;;;;2.50;2.30;;;;;;;;;;4907412;29;20169;-70
2022/08/09 11:50:55;;;;;;;2.70;2.30;;;;;;;;;;4911663;29;20188;-70
2022/08/09 11:53:21;;;;;;;2.75;2.10;;;;;;;;;;4930257;29;20216;-70
2022/08/09 11:55:47;;;;;;;3.05;2.33;;;;;;;;;;4921484;29;20182;-70
2022/08/09 11:58:12;;;;;;;5.07;2.63;;;;;;;;;;4924433;29;20186;-70
2022/08/09 12:00:46;;;;;;;2.55;2.35;;;;;;;;;;4922201;29;20174;-70
2022/08/09 12:03:14;;;;;;;2.10;2.00;;;;;;;;;;4910957;29;20436;-70
2022/08/09 12:05:39;;;;;;;2.72;2.53;;;;;;;;;;4922761;29;20261;-70
2022/08/09 12:08:09;;;;;;;3.28;2.45;;;;;;;;;;4923528;29;20271;-70
2022/08/09 12:10:34;;;;;;;3.90;2.47;;;;;;;;;;4918675;29;20189;-70
2022/08/09 12:13:00;;;;;;;2.72;2.53;;;;;;;;;;4938914;29;20329;-70
2022/08/09 12:15:26;;;;;;;3.60;2.55;;;;;;;;;;4922735;29;20276;-70
2022/08/09 12:17:52;;;;;;;2.72;2.20;;;;;;;;;;4911013;29;20318;-70
2022/08/09 12:20:19;;;;;;;5.07;2.40;;;;;;;;;;4902252;29;20316;-70
2022/08/09 12:22:44;;;;;;;3.97;2.40;;;;;;;;;;4906286;29;20704;-70
2022/08/09 12:25:16;;;;;;;3.05;2.50;;;;;;;;;;4921608;29;20242;-70
2022/08/09 12:27:42;;;;;;;2.53;2.10;;;;;;;;;;4899755;29;20455;-71
2022/08/09 12:30:08;;;;;;;2.20;2.03;;;;;;;;;;4908897;29;20492;-70
2022/08/09 12:32:34;;;;;;;2.20;2.00;;;;;;;;;;4910481;29;20282;-70
2022/08/09 12:35:00;;;;;;;3.17;2.28;;;;;;;;;;4891180;29;20245;-70
2022/08/09 12:37:33;;;;;;;2.88;1.90;;;;;;;;;;4897005;29;20187;-70
2022/08/09 12:39:59;;;;;;;3.35;2.42;;;;;;;;;;4907324;29;20251;-70
2022/08/09 12:42:24;;;;;;;2.50;2.38;;;;;;;;;;4906138;29;20258;-70
2022/08/09 12:44:50;;;;;;;2.55;2.35;;;;;;;;;;4886469;29;20274;-70
2022/08/09 12:47:15;;;;;;;4.43;2.30;;;;;;;;;;4909066;29;20237;-70
2022/08/09 12:49:41;;;;;;;2.80;2.33;;;;;;;;;;4897515;29;20201;-70
2022/08/09 12:52:08;;;;;;;2.60;2.40;;;;;;;;;;4904616;29;20207;-70
2022/08/09 12:54:59;;;;;;;4.05;2.78;;;;;;;;;;4890631;29;20182;-70
2022/08/09 12:57:41;;;;;;;2.80;2.20;;;;;;;;;;4904927;29;20199;-70
2022/08/09 13:00:11;;;;;;;2.38;2.17;;;;;;;;;;4912762;29;20213;-70
2022/08/09 13:02:56;;;;;;;3.00;2.20;;;;;;;;;;4912638;29;20179;-70
2022/08/09 13:05:22;;;;;;;3.15;2.15;;;;;;;;;;4918604;29;20186;-70
2022/08/09 13:08:26;;;;;;;3.90;2.08;;;;;;;;;;4909642;29;20522;-70
2022/08/09 13:10:56;;;;;;;2.30;2.10;;;;;;;;;;4848533;29;20185;-70
2022/08/09 13:13:32;;;;;;;3.05;2.38;;;;;;;;;;4842137;29;20308;-70
2022/08/09 13:15:59;;;;;;;2.38;2.17;;;;;;;;;;4843600;29;20200;-70
2022/08/09 13:18:25;;;;;;;2.75;1.98;;;;;;;;;;4849038;29;20447;-70
2022/08/09 13:20:50;;;;;;;5.55;2.97;;;;;;;;;;4831677;29;20193;-70
2022/08/09 13:23:16;;;;;;;2.35;2.03;;;;;;;;;;4844280;29;20208;-70
2022/08/09 13:25:45;;;;;;;1.90;1.80;;;;;;;;;;4830877;29;20193;-70
2022/08/09 13:28:14;;;;;;;3.47;2.30;;;;;;;;;;4844313;29;20225;-70
2022/08/09 13:30:40;;;;;;;2.10;1.90;;;;;;;;;;4831955;29;20223;-70
2022/08/09 13:33:06;;;;;;;2.38;1.88;;;;;;;;;;4832223;29;20213;-70
2022/08/09 13:35:31;;;;;;;2.15;1.90;;;;;;;;;;4844958;29;20193;-70
2022/08/09 13:37:56;;;;;;;2.22;2.13;;;;;;;;;;4830449;29;20188;-70
2022/08/09 13:40:21;;;;;;;4.53;2.10;;;;;;;;;;4847865;29;20329;-70
2022/08/09 13:42:47;;;;;;;3.03;2.17;;;;;;;;;;4890221;29;20309;-70
2022/08/09 13:45:13;;;;;;;3.72;2.30;;;;;;;;;;4886677;29;20262;-70
2022/08/09 13:47:39;;;;;;;2.20;2.00;;;;;;;;;;4908171;29;20179;-70
2022/08/09 13:50:09;;;;;;;2.17;2.05;;;;;;;;;;4905495;29;20190;-71
2022/08/09 13:52:35;;;;;;;2.47;2.28;;;;;;;;;;4890999;29;20202;-70
2022/08/09 13:55:01;;;;;;;4.18;2.00;;;;;;;;;;4888648;29;20218;-70
2022/08/09 13:57:27;;;;;;;2.08;1.83;;;;;;;;;;4909277;29;20376;-70
2022/08/09 13:59:52;;;;;;;2.33;2.10;;;;;;;;;;4904030;29;20189;-70
2022/08/09 14:02:17;;;;;;;2.53;2.00;;;;;;;;;;4909727;29;20363;-70
2022/08/09 14:04:43;;;;;;;6.63;2.40;;;;;;;;;;4896770;29;20213;-70
2022/08/09 14:07:08;;;;;;;3.83;2.17;;;;;;;;;;4906899;29;20199;-71
2022/08/09 14:09:33;;;;;;;2.33;2.13;;;;;;;;;;4889886;29;20194;-70
2022/08/09 14:11:59;;;;;;;4.10;2.10;;;;;;;;;;4890027;29;20265;-70
2022/08/09 14:14:24;;;;;;;3.55;2.00;;;;;;;;;;4890620;29;20179;-71
2022/08/09 14:16:50;;;;;;;3.72;2.42;;;;;;;;;;4887730;29;20253;-70
2022/08/09 14:19:18;;;;;;;2.45;1.95;;;;;;;;;;4887495;29;20179;-70
2022/08/09 14:21:44;;;;;;;4.45;2.30;;;;;;;;;;4902579;29;20186;-70
2022/08/09 14:24:13;;;;;;;2.97;2.33;;;;;;;;;;4915649;29;20179;-71
2022/08/09 14:26:38;;;;;;;4.57;1.90;;;;;;;;;;4888922;29;20171;-70
2022/08/09 14:29:05;;;;;;;2.78;2.30;;;;;;;;;;4893480;29;20317;-70
2022/08/09 14:31:30;;;;;;;6.00;3.75;;;;;;;;;;4906609;29;20358;-70
2022/08/09 14:33:55;;;;;;;1.83;1.73;;;;;;;;;;4905010;29;20297;-70
2022/08/09 14:36:20;;;;;;;1.95;1.75;;;;;;;;;;4885621;29;20187;-70
2022/08/09 14:38:46;;;;;;;2.30;2.10;;;;;;;;;;4903533;29;20261;-70
2022/08/09 14:41:11;;;;;;;2.85;1.60;;;;;;;;;;4909609;29;20175;-70
2022/08/09 14:43:36;;;;;;;3.35;1.77;;;;;;;;;;4910113;29;20221;-70
2022/08/09 14:46:01;;;;;;;2.90;1.98;;;;;;;;;;4914786;29;20261;-70
2022/08/09 14:48:27;;;;;;;3.10;2.63;;;;;;;;;;4884525;29;20214;-70
2022/08/09 14:50:52;;;;;;;3.42;1.80;;;;;;;;;;4899128;29;20187;-71
2022/08/09 14:53:17;;;;;;;4.47;1.90;;;;;;;;;;4903814;29;20217;-70
2022/08/09 14:55:43;;;;;;;3.17;1.90;;;;;;;;;;4906405;29;20241;-70
2022/08/09 14:58:08;;;;;;;3.10;2.00;;;;;;;;;;4906923;29;20179;-70
2022/08/09 15:05:36;;;;;;;4.10;2.10;;;;;;;;;;4921689;29;20308;-71
2022/08/09 15:08:02;;;;;;;1.98;1.77;;;;;;;;;;4926356;29;20187;-71
2022/08/09 15:10:28;;;;;;;3.50;2.10;;;;;;;;;;4906401;29;20700;-71
2022/08/09 15:12:54;;;;;;;2.08;1.98;;;;;;;;;;4922434;29;20255;-71
2022/08/09 15:15:20;;;;;;;3.15;1.98;;;;;;;;;;4923810;29;20178;-71
2022/08/09 15:17:45;;;;;;;1.90;1.80;;;;;;;;;;4904679;29;20182;-72
2022/08/09 15:20:11;;;;;;;6.63;2.08;;;;;;;;;;4902925;29;20232;-72
2022/08/09 15:22:36;;;;;;;3.25;2.00;;;;;;;;;;4922932;29;20261;-71
2022/08/09 15:25:01;;;;;;;1.77;1.67;;;;;;;;;;4919270;29;20193;-72
2022/08/09 15:27:27;;;;;;;3.55;2.03;;;;;;;;;;4927587;29;20233;-72
2022/08/09 15:29:52;;;;;;;2.20;2.00;;;;;;;;;;4923192;29;20197;-71
2022/08/09 15:32:17;;;;;;;2.83;1.90;;;;;;;;;;4905447;29;20206;-71
2022/08/09 15:34:42;;;;;;;3.92;1.90;;;;;;;;;;4921404;29;20325;-72
2022/08/09 15:39:51;;;;;;;2.58;2.38;;;;;;;;;;4923411;29;20192;-72
2022/08/09 15:42:17;;;;;;;2.78;1.95;;;;;;;;;;4904510;29;20285;-71
2022/08/09 15:44:42;;;;;;;2.60;1.70;;;;;;;;;;4904551;29;20190;-71
2022/08/09 15:47:07;;;;;;;3.83;1.80;;;;;;;;;;4922488;29;20742;-71
2022/08/09 15:49:32;;;;;;;4.07;2.20;;;;;;;;;;4906053;29;20443;-71
2022/08/09 15:51:57;;;;;;;3.00;1.80;;;;;;;;;;4899669;29;20233;-72
2022/08/09 15:54:23;;;;;;;2.95;1.95;;;;;;;;;;4923566;29;20432;-71
2022/08/09 15:56:48;;;;;;;6.55;1.88;;;;;;;;;;4921313;29;20192;-72
2022/08/09 15:59:13;;;;;;;1.95;1.80;;;;;;;;;;4915755;29;20191;-72
2022/08/09 16:01:38;;;;;;;2.00;1.90;;;;;;;;;;4900851;29;20237;-71
2022/08/09 16:04:03;;;;;;;6.87;2.47;;;;;;;;;;4905086;29;20735;-72
2022/08/09 16:06:29;;;;;;;5.18;2.03;;;;;;;;;;4921499;29;20489;-71
2022/08/09 16:08:54;;;;;;;3.60;2.03;;;;;;;;;;4905854;29;20182;-71
2022/08/09 16:11:20;;;;;;;4.38;2.10;;;;;;;;;;4924018;29;20478;-71
2022/08/09 16:13:45;;;;;;;2.63;1.92;;;;;;;;;;4930441;28;20249;-72
2022/08/09 16:16:10;;;;;;;3.20;1.83;;;;;;;;;;4921232;29;20301;-71
2022/08/09 16:18:35;;;;;;;1.80;1.70;;;;;;;;;;4900371;29;20425;-71
2022/08/09 16:21:03;;;;;;;2.83;1.83;;;;;;;;;;4923886;29;20214;-71
2022/08/09 16:23:28;;;;;;;2.25;1.90;;;;;;;;;;4902324;29;20276;-72
2022/08/09 16:25:53;;;;;;;1.95;1.85;;;;;;;;;;4899443;29;20218;-71
2022/08/09 16:28:19;;;;;;;7.03;2.13;;;;;;;;;;4921475;29;20226;-71
2022/08/09 16:30:44;;;;;;;4.38;2.03;;;;;;;;;;4910867;29;20650;-71
2022/08/09 16:33:10;;;;;;;6.05;2.17;;;;;;;;;;4903262;29;20264;-71
2022/08/09 16:35:36;;;;;;;3.17;2.17;;;;;;;;;;4906333;29;20178;-71
2022/08/09 16:38:02;;;;;;;2.20;1.90;;;;;;;;;;4922536;29;20191;-72
2022/08/09 16:40:27;;;;;;;4.35;2.13;;;;;;;;;;4903513;29;20221;-72
2022/08/09 16:42:52;;;;;;;2.03;1.83;;;;;;;;;;4922372;29;20233;-72
2022/08/09 16:45:18;;;;;;;2.90;1.83;;;;;;;;;;4913356;29;20181;-71
2022/08/09 16:47:45;;;;;;;2.17;1.98;;;;;;;;;;4929017;29;20433;-71
2022/08/09 16:50:10;;;;;;;2.65;1.90;;;;;;;;;;4918606;29;20183;-71
2022/08/09 16:52:35;;;;;;;2.60;1.83;;;;;;;;;;4903850;29;20656;-72
2022/08/09 16:55:01;;;;;;;3.20;1.92;;;;;;;;;;4905732;29;20189;-71
2022/08/09 16:57:26;;;;;;;2.08;1.90;;;;;;;;;;4905027;29;20326;-71
2022/08/09 16:59:51;;;;;;;4.07;1.90;;;;;;;;;;4905765;29;20185;-71
2022/08/09 17:02:16;;;;;;;4.60;1.83;;;;;;;;;;4918636;29;20194;-71
2022/08/09 17:04:43;;;;;;;4.03;1.73;;;;;;;;;;4900880;29;20469;-72
2022/08/09 17:07:08;;;;;;;2.05;1.95;;;;;;;;;;4917962;29;20187;-71
2022/08/09 17:09:34;;;;;;;5.03;1.95;;;;;;;;;;4923125;29;20183;-71
2022/08/09 17:12:00;;;;;;;5.47;2.43;;;;;;;;;;4920229;29;20237;-72
2022/08/09 17:14:25;;;;;;;3.65;2.08;;;;;;;;;;4907065;29;20475;-71
2022/08/09 17:16:50;;;;;;;2.70;2.25;;;;;;;;;;4921436;29;20175;-71
2022/08/09 17:19:15;;;;;;;2.17;1.98;;;;;;;;;;4920867;29;20181;-71
2022/08/09 17:21:41;;;;;;;1.90;1.80;;;;;;;;;;4921557;29;20193;-71
2022/08/09 17:24:06;;;;;;;5.72;2.20;;;;;;;;;;4921323;29;20652;-71
2022/08/09 17:26:31;;;;;;;3.35;2.00;;;;;;;;;;4908274;29;20179;-71
2022/08/09 17:28:56;;;;;;;2.10;1.90;;;;;;;;;;4911480;29;20233;-71
2022/08/09 17:31:21;;;;;;;2.70;2.10;;;;;;;;;;4906786;29;20467;-71
2022/08/09 17:33:47;;;;;;;5.32;2.20;;;;;;;;;;4905668;29;20473;-71
2022/08/09 17:36:12;;;;;;;4.03;2.00;;;;;;;;;;4905461;29;20178;-71
2022/08/09 17:38:37;;;;;;;3.42;2.40;;;;;;;;;;4920912;29;20182;-72
2022/08/09 17:41:02;;;;;;;3.38;1.92;;;;;;;;;;4928733;29;20183;-72
2022/08/09 17:43:28;;;;;;;2.20;2.10;;;;;;;;;;4922818;29;20187;-72
2022/08/09 17:45:53;;;;;;;2.72;1.98;;;;;;;;;;4907895;29;20209;-72
2022/08/09 17:48:18;;;;;;;2.53;2.13;;;;;;;;;;4923814;29;20194;-72
2022/08/09 17:50:43;;;;;;;2.33;2.13;;;;;;;;;;4916629;29;20194;-72
2022/08/09 17:53:08;;;;;;;2.97;1.98;;;;;;;;;;4907019;29;20287;-72
2022/08/09 17:55:35;;;;;;;3.47;2.17;;;;;;;;;;4925909;29;20179;-72
2022/08/09 17:58:00;;;;;;;5.63;2.22;;;;;;;;;;4907372;29;20190;-73
2022/08/09 18:00:25;;;;;;;4.05;1.90;;;;;;;;;;4906709;29;20178;-71
2022/08/09 18:02:50;;;;;;;2.83;2.47;;;;;;;;;;4919355;29;20223;-71
2022/08/09 18:05:16;;;;;;;7.65;2.20;;;;;;;;;;4907773;29;20472;-71
2022/08/09 18:07:41;;;;;;;3.30;1.90;;;;;;;;;;4923065;29;20217;-71
2022/08/09 18:10:06;;;;;;;3.25;2.33;;;;;;;;;;4923887;29;20178;-71
2022/08/09 18:12:31;;;;;;;3.33;2.20;;;;;;;;;;4905876;29;20209;-72
2022/08/09 18:14:57;;;;;;;3.53;2.35;;;;;;;;;;4906021;29;20473;-72
2022/08/09 18:17:23;;;;;;;3.88;2.47;;;;;;;;;;4903880;29;20190;-72
2022/08/09 18:19:48;;;;;;;7.35;2.03;;;;;;;;;;4923307;29;20174;-71
2022/08/09 18:22:13;;;;;;;3.75;2.00;;;;;;;;;;4909712;29;20291;-72
2022/08/09 18:24:39;;;;;;;4.53;2.08;;;;;;;;;;4918964;28;20194;-72
2022/08/09 18:27:07;;;;;;;4.25;2.20;;;;;;;;;;4923904;29;20253;-71
2022/08/09 18:29:32;;;;;;;3.40;2.50;;;;;;;;;;4901066;29;20201;-71
2022/08/09 18:31:57;;;;;;;2.75;2.40;;;;;;;;;;4921378;29;20190;-72
2022/08/09 18:34:23;;;;;;;2.35;2.15;;;;;;;;;;4913800;29;20189;-71
2022/08/09 18:36:48;;;;;;;5.78;2.47;;;;;;;;;;4902245;29;20194;-71
2022/08/09 18:39:13;;;;;;;2.30;2.10;;;;;;;;;;4921034;29;20185;-71
2022/08/09 18:41:38;;;;;;;3.50;2.60;;;;;;;;;;4921395;28;20173;-71
2022/08/09 18:44:04;;;;;;;2.33;2.13;;;;;;;;;;4914598;29;20194;-71
2022/08/09 18:46:30;;;;;;;3.00;2.05;;;;;;;;;;4903865;29;20190;-72
2022/08/09 18:48:56;;;;;;;2.65;2.40;;;;;;;;;;4926007;29;20186;-72
2022/08/09 18:51:21;;;;;;;3.55;2.13;;;;;;;;;;4919998;29;20217;-72
2022/08/09 18:53:46;;;;;;;3.58;2.28;;;;;;;;;;4921700;29;20493;-72
2022/08/09 18:56:12;;;;;;;2.35;2.15;;;;;;;;;;4903124;29;20472;-72
2022/08/09 18:58:37;;;;;;;4.40;2.33;;;;;;;;;;4921816;29;20498;-72
2022/08/09 19:01:02;;;;;;;2.55;2.20;;;;;;;;;;4898969;29;20281;-72
2022/08/09 19:03:27;;;;;;;4.07;2.33;;;;;;;;;;4917510;29;20266;-72
2022/08/09 19:05:52;;;;;;;4.15;2.40;;;;;;;;;;4916368;29;20201;-72
2022/08/09 19:08:18;;;;;;;3.15;2.20;;;;;;;;;;4905261;29;20337;-72
2022/08/09 19:10:43;;;;;;;2.75;2.20;;;;;;;;;;4920525;29;20241;-72
2022/08/09 19:13:10;;;;;;;3.42;2.00;;;;;;;;;;4917816;29;20218;-72
2022/08/09 19:15:36;;;;;;;3.65;1.80;;;;;;;;;;4921641;29;20182;-72
2022/08/09 19:18:03;;;;;;;2.75;2.13;;;;;;;;;;4921857;29;20178;-72
2022/08/09 19:20:28;;;;;;;2.75;2.38;;;;;;;;;;4921999;29;20186;-72
2022/08/09 19:22:53;;;;;;;2.97;2.75;;;;;;;;;;4921759;29;20193;-72
2022/08/09 19:25:19;;;;;;;4.68;2.00;;;;;;;;;;4906320;29;20186;-72
2022/08/09 19:27:44;;;;;;;5.00;2.40;;;;;;;;;;4941595;28;20205;-72
2022/08/09 19:30:09;;;;;;;3.13;1.80;;;;;;;;;;4914361;29;20216;-72
2022/08/09 19:32:35;;;;;;;3.60;2.10;;;;;;;;;;4929512;29;20321;-72
2022/08/09 19:35:00;;;;;;;2.70;2.22;;;;;;;;;;4904176;29;20832;-72